createdAt,value
2022-10-01T00:01:34.653Z,14.35
2022-10-01T00:04:43.219Z,13.23
2022-10-01T00:07:58.468Z,14.43
2022-10-01T00:11:01.159Z,12.73
2022-10-01T00:14:16.383Z,13.95
2022-10-01T00:17:24.903Z,12.65
2022-10-01T00:20:33.382Z,13.63
2022-10-01T00:24:00.522Z,14.65
2022-10-01T00:27:08.983Z,13.50
2022-10-01T00:30:17.379Z,13.70
2022-10-01T00:33:25.944Z,12.20
2022-10-01T00:36:34.380Z,12.97
2022-10-01T00:39:43.123Z,13.40
2022-10-01T00:42:57.758Z,14.25
2022-10-01T00:46:24.688Z,13.15
2022-10-01T00:49:43.399Z,14.48
2022-10-01T00:52:56.670Z,13.23
2022-10-01T00:56:06.378Z,14.60
2022-10-01T00:59:21.371Z,15.82
2022-10-01T01:02:23.017Z,14.32
2022-10-01T01:05:37.379Z,13.00
2022-10-01T01:09:12.455Z,15.20
2022-10-01T01:12:36.779Z,13.30
2022-10-01T01:16:03.454Z,13.05
2022-10-01T01:19:38.408Z,13.48
2022-10-01T01:23:06.579Z,14.70
2022-10-01T01:26:58.431Z,13.20
2022-10-01T01:30:26.400Z,16.87
2022-10-01T01:33:31.587Z,14.85
2022-10-01T01:36:52.444Z,12.85
2022-10-01T01:39:56.902Z,13.32
2022-10-01T01:43:36.391Z,13.67
2022-10-01T01:46:46.623Z,14.23
2022-10-01T01:49:56.404Z,13.90
2022-10-01T01:53:05.033Z,15.80
2022-10-01T01:56:19.400Z,15.85
2022-10-01T01:59:41.600Z,15.83
2022-10-01T02:03:00.455Z,15.60
2022-10-01T02:06:38.599Z,15.88
2022-10-01T02:10:26.407Z,15.88
2022-10-01T02:14:00.462Z,15.10
2022-10-01T02:17:16.561Z,18.70
2022-10-01T02:20:49.428Z,15.95
2022-10-01T02:24:43.455Z,15.88
2022-10-01T02:28:13.457Z,16.12
2022-10-01T02:31:24.531Z,15.43
2022-10-01T02:34:40.390Z,15.00
2022-10-01T02:37:44.680Z,15.75
2022-10-01T02:41:02.420Z,16.25
2022-10-01T02:44:23.486Z,13.55
2022-10-01T02:47:29.244Z,14.85
2022-10-01T02:50:54.421Z,13.00
2022-10-01T02:54:13.459Z,15.57
2022-10-01T02:57:23.450Z,15.80
2022-10-01T03:00:38.429Z,14.87
2022-10-01T03:03:46.967Z,14.87
2022-10-01T03:06:55.478Z,14.83
2022-10-01T03:10:05.035Z,15.10
2022-10-01T03:13:13.467Z,16.77
2022-10-01T03:16:22.028Z,16.00
2022-10-01T03:19:36.431Z,15.65
2022-10-01T03:22:44.668Z,16.53
2022-10-01T03:25:53.195Z,15.88
2022-10-01T03:29:07.416Z,16.10
2022-10-01T03:32:15.471Z,14.05
2022-10-01T03:35:31.653Z,14.63
2022-10-01T03:38:34.890Z,15.73
2022-10-01T03:42:10.464Z,15.63
2022-10-01T03:45:19.204Z,16.35
2022-10-01T03:48:27.494Z,15.50
2022-10-01T03:51:43.445Z,16.48
2022-10-01T03:54:52.088Z,17.10
2022-10-01T03:58:00.435Z,14.20
2022-10-01T04:01:08.871Z,15.35
2022-10-01T04:04:23.451Z,16.75
2022-10-01T04:07:24.996Z,15.15
2022-10-01T04:10:39.539Z,18.80
2022-10-01T04:13:41.491Z,16.15
2022-10-01T04:16:56.581Z,15.32
2022-10-01T04:20:24.949Z,16.20
2022-10-01T04:23:39.460Z,16.70
2022-10-01T04:26:54.508Z,16.53
2022-10-01T04:30:05.551Z,18.83
2022-10-01T04:33:16.526Z,17.92
2022-10-01T04:36:32.471Z,15.15
2022-10-01T04:39:40.948Z,13.15
2022-10-01T04:42:49.464Z,15.03
2022-10-01T04:46:04.445Z,15.90
2022-10-01T04:49:12.455Z,13.62
2022-10-01T04:52:27.512Z,14.13
2022-10-01T04:55:36.093Z,14.45
2022-10-01T04:58:44.435Z,14.90
2022-10-01T05:01:53.025Z,17.00
2022-10-01T05:05:08.456Z,16.48
2022-10-01T05:08:10.117Z,14.90
2022-10-01T05:11:24.517Z,14.82
2022-10-01T05:14:26.216Z,14.30
2022-10-01T05:17:40.470Z,15.07
2022-10-01T05:20:49.875Z,16.58
2022-10-01T05:24:04.519Z,16.58
2022-10-01T05:27:13.059Z,14.87
2022-10-01T05:30:28.456Z,18.63
2022-10-01T05:33:31.130Z,13.95
2022-10-01T05:36:45.459Z,14.95
2022-10-01T05:39:47.236Z,13.98
2022-10-01T05:43:03.466Z,18.55
2022-10-01T05:46:12.020Z,16.13
2022-10-01T05:49:20.474Z,14.65
2022-10-01T05:52:28.936Z,16.00
2022-10-01T05:55:43.520Z,15.32
2022-10-01T05:58:45.328Z,14.80
2022-10-01T06:01:59.602Z,17.03
2022-10-01T06:05:01.260Z,13.77
2022-10-01T06:08:15.489Z,16.15
2022-10-01T06:11:24.183Z,20.40
2022-10-01T06:14:32.487Z,16.73
2022-10-01T06:17:47.504Z,15.47
2022-10-01T06:21:04.486Z,16.95
2022-10-01T06:24:12.716Z,17.58
2022-10-01T06:27:27.543Z,17.15
2022-10-01T06:30:45.480Z,15.43
2022-10-01T06:33:47.034Z,18.37
2022-10-01T06:37:01.494Z,17.42
2022-10-01T06:40:03.759Z,15.50
2022-10-01T06:43:18.474Z,14.90
2022-10-01T06:46:27.036Z,16.27
2022-10-01T06:49:35.475Z,17.77
2022-10-01T06:52:44.115Z,17.00
2022-10-01T06:55:58.488Z,17.77
2022-10-01T06:59:00.247Z,18.45
2022-10-01T07:02:30.549Z,14.55
2022-10-01T07:05:52.146Z,16.23
2022-10-01T07:09:06.508Z,15.48
2022-10-01T07:12:14.983Z,15.00
2022-10-01T07:15:25.539Z,15.85
2022-10-01T07:18:34.374Z,18.00
2022-10-01T07:21:48.487Z,18.33
2022-10-01T07:24:56.764Z,14.60
2022-10-01T07:28:13.559Z,18.52
2022-10-01T07:31:16.252Z,24.58
2022-10-01T07:34:30.553Z,16.25
2022-10-01T07:37:45.517Z,16.10
2022-10-01T07:40:52.472Z,18.37
2022-10-01T07:44:07.559Z,16.15
2022-10-01T07:47:16.028Z,18.00
2022-10-01T07:50:24.590Z,17.17
2022-10-01T07:53:33.108Z,17.17
2022-10-01T07:56:41.511Z,16.40
2022-10-01T07:59:56.508Z,20.20
2022-10-01T08:03:12.637Z,16.73
2022-10-01T08:06:14.264Z,16.65
2022-10-01T08:09:28.580Z,16.83
2022-10-01T08:12:43.518Z,16.85
2022-10-01T08:15:53.522Z,17.12
2022-10-01T08:19:02.518Z,24.00
2022-10-01T08:22:17.578Z,15.07
2022-10-01T08:25:25.869Z,16.97
2022-10-01T08:28:41.511Z,15.93
2022-10-01T08:31:49.573Z,16.40
2022-10-01T08:34:58.138Z,16.92
2022-10-01T08:38:12.664Z,14.55
2022-10-01T08:41:44.320Z,13.43
2022-10-01T08:44:59.575Z,13.13
2022-10-01T08:48:26.582Z,16.73
2022-10-01T08:51:45.692Z,16.40
2022-10-01T08:55:06.550Z,15.07
2022-10-01T08:58:32.587Z,16.00
2022-10-01T09:01:34.448Z,15.38
2022-10-01T09:04:49.554Z,16.45
2022-10-01T09:08:17.606Z,16.65
2022-10-01T09:11:55.900Z,19.55
2022-10-01T09:15:39.560Z,17.00
2022-10-01T09:18:58.618Z,21.98
2022-10-01T09:22:33.555Z,19.65
2022-10-01T09:25:56.552Z,18.77
2022-10-01T09:29:07.564Z,17.77
2022-10-01T09:32:21.492Z,19.97
2022-10-01T09:35:45.799Z,21.58
2022-10-01T09:39:11.767Z,19.98
2022-10-01T09:42:26.019Z,17.67
2022-10-01T09:45:34.592Z,20.95
2022-10-01T09:49:09.559Z,21.17
2022-10-01T09:52:36.279Z,19.73
2022-10-01T09:55:48.619Z,18.00
2022-10-01T09:59:17.522Z,18.40
2022-10-01T10:02:33.771Z,19.17
2022-10-01T10:05:46.527Z,19.07
2022-10-01T10:08:54.552Z,17.90
2022-10-01T10:12:09.554Z,18.35
2022-10-01T10:15:28.547Z,17.10
2022-10-01T10:18:39.607Z,18.27
2022-10-01T10:21:58.578Z,16.93
2022-10-01T10:25:13.709Z,15.77
2022-10-01T10:28:30.697Z,16.85
2022-10-01T10:31:50.632Z,20.08
2022-10-01T10:35:03.549Z,16.65
2022-10-01T10:38:25.564Z,16.17
2022-10-01T10:41:29.746Z,17.05
2022-10-01T10:44:45.760Z,15.38
2022-10-01T10:48:00.561Z,17.23
2022-10-01T10:51:07.795Z,15.02
2022-10-01T10:54:26.643Z,16.23
2022-10-01T10:57:32.662Z,15.07
2022-10-01T11:00:54.571Z,17.02
2022-10-01T11:04:03.056Z,17.15
2022-10-01T11:07:11.660Z,15.07
2022-10-01T11:10:28.706Z,20.53
2022-10-01T11:13:57.562Z,15.05
2022-10-01T11:17:45.608Z,13.77
2022-10-01T11:21:12.968Z,16.00
2022-10-01T11:24:39.585Z,14.15
2022-10-01T11:28:17.990Z,14.90
2022-10-01T11:31:44.648Z,12.10
2022-10-01T11:35:12.624Z,13.57
2022-10-01T11:38:39.331Z,12.02
2022-10-01T11:41:59.678Z,11.57
2022-10-01T11:45:13.993Z,15.07
2022-10-01T11:48:37.596Z,12.95
2022-10-01T11:51:49.591Z,13.50
2022-10-01T11:55:14.684Z,13.68
2022-10-01T11:58:34.649Z,10.75
2022-10-01T12:01:59.675Z,13.37
2022-10-01T12:05:16.298Z,10.60
2022-10-01T12:08:29.746Z,11.90
2022-10-01T12:12:02.607Z,9.02
2022-10-01T12:15:19.760Z,8.45
2022-10-01T12:18:36.647Z,9.57
2022-10-01T12:22:24.372Z,11.38
2022-10-01T12:26:07.636Z,10.02
2022-10-01T12:29:28.671Z,8.35
2022-10-01T12:33:03.695Z,8.98
2022-10-01T12:36:25.288Z,10.37
2022-10-01T12:39:54.952Z,9.55
2022-10-01T12:44:08.607Z,8.55
2022-10-01T12:47:32.283Z,9.60
2022-10-01T12:51:07.176Z,8.57
2022-10-01T12:54:39.880Z,9.47
2022-10-01T12:58:20.136Z,7.72
2022-10-01T13:01:49.669Z,9.00
2022-10-01T13:05:24.639Z,8.52
2022-10-01T13:08:50.931Z,8.75
2022-10-01T13:12:20.695Z,8.83
2022-10-01T13:15:45.672Z,9.82
2022-10-01T13:19:20.849Z,8.25
2022-10-01T13:22:51.680Z,7.43
2022-10-01T13:26:20.651Z,7.10
2022-10-01T13:29:39.716Z,7.10
2022-10-01T13:33:04.620Z,7.22
2022-10-01T13:36:35.150Z,7.80
2022-10-01T13:39:43.624Z,9.00
2022-10-01T13:43:03.869Z,7.45
2022-10-01T13:47:11.004Z,7.87
2022-10-01T13:50:47.640Z,6.22
2022-10-01T13:54:02.239Z,6.45
2022-10-01T13:57:33.660Z,9.40
2022-10-01T14:00:35.659Z,9.05
2022-10-01T14:04:01.894Z,9.53
2022-10-01T14:07:29.094Z,11.10
2022-10-01T14:11:11.654Z,10.35
2022-10-01T14:14:37.755Z,7.93
2022-10-01T14:17:41.021Z,9.25
2022-10-01T14:21:14.684Z,10.93
2022-10-01T14:25:29.161Z,10.88
2022-10-01T14:29:22.028Z,9.30
2022-10-01T14:33:09.474Z,10.13
2022-10-01T14:36:39.966Z,9.02
2022-10-01T14:39:48.667Z,8.33
2022-10-01T14:43:02.506Z,11.25
2022-10-01T14:46:20.737Z,14.30
2022-10-01T14:49:26.673Z,11.77
2022-10-01T14:52:42.768Z,11.55
2022-10-01T14:56:01.664Z,10.97
2022-10-01T14:59:36.228Z,11.85
2022-10-01T15:02:58.813Z,10.98
2022-10-01T15:06:20.782Z,11.25
2022-10-01T15:09:22.403Z,9.52
2022-10-01T15:12:36.700Z,12.30
2022-10-01T15:15:45.404Z,12.60
2022-10-01T15:18:59.735Z,14.25
2022-10-01T15:22:22.011Z,15.23
2022-10-01T15:25:53.277Z,13.15
2022-10-01T15:29:27.727Z,15.43
2022-10-01T15:33:02.791Z,17.75
2022-10-01T15:36:24.951Z,14.65
2022-10-01T15:40:01.726Z,12.13
2022-10-01T15:43:29.783Z,16.60
2022-10-01T15:46:38.548Z,11.77
2022-10-01T15:50:08.954Z,16.42
2022-10-01T15:53:22.214Z,14.02
2022-10-01T15:56:56.684Z,13.38
2022-10-01T15:59:59.308Z,11.88
2022-10-01T16:03:26.025Z,12.40
2022-10-01T16:07:26.814Z,9.70
2022-10-01T16:11:14.149Z,10.32
2022-10-01T16:14:36.719Z,9.50
2022-10-01T16:18:01.764Z,9.05
2022-10-01T16:21:11.265Z,8.63
2022-10-01T16:24:32.737Z,7.35
2022-10-01T16:27:47.673Z,8.10
2022-10-01T16:31:01.715Z,6.75
2022-10-01T16:34:23.255Z,5.80
2022-10-01T16:42:27.738Z,6.10
2022-10-01T16:46:15.120Z,6.20
2022-10-01T16:49:29.024Z,6.72
2022-10-01T16:52:48.805Z,5.10
2022-10-01T16:55:57.411Z,7.33
2022-10-01T16:59:15.150Z,6.90
2022-10-01T17:02:41.326Z,7.72
2022-10-01T17:06:31.950Z,5.25
2022-10-01T17:09:47.946Z,5.28
2022-10-01T17:12:59.379Z,5.87
2022-10-01T17:16:24.632Z,6.47
2022-10-01T17:19:37.868Z,7.62
2022-10-01T17:23:04.891Z,5.97
2022-10-01T17:26:21.251Z,5.70
2022-10-01T17:29:37.958Z,6.30
2022-10-01T17:33:01.468Z,5.93
2022-10-01T17:36:16.803Z,6.28
2022-10-01T17:39:31.771Z,5.03
2022-10-01T17:42:45.455Z,6.70
2022-10-01T17:46:05.866Z,5.83
2022-10-01T17:49:14.537Z,5.70
2022-10-01T17:52:25.813Z,5.05
2022-10-01T17:55:52.091Z,6.47
2022-10-01T17:59:10.367Z,4.87
2022-10-01T18:02:36.723Z,6.70
2022-10-01T18:05:47.721Z,6.47
2022-10-01T18:08:56.870Z,5.55
2022-10-01T18:12:04.723Z,5.90
2022-10-01T18:15:13.167Z,5.15
2022-10-01T18:21:56.735Z,5.15
2022-10-01T18:25:18.727Z,5.57
2022-10-01T18:28:22.724Z,5.20
2022-10-01T18:31:46.771Z,4.87
2022-10-01T18:35:05.740Z,5.97
2022-10-01T18:38:20.438Z,5.45
2022-10-01T18:41:42.731Z,6.03
2022-10-01T18:44:45.723Z,6.78
2022-10-01T18:48:24.734Z,8.73
2022-10-01T18:51:51.724Z,6.00
2022-10-01T18:55:21.278Z,7.50
2022-10-01T18:59:04.806Z,7.00
2022-10-01T19:02:50.485Z,7.80
2022-10-01T19:06:10.551Z,6.68
2022-10-01T19:09:47.740Z,7.90
2022-10-01T19:13:11.411Z,7.80
2022-10-01T19:16:45.883Z,8.70
2022-10-01T19:20:21.815Z,8.95
2022-10-01T19:24:13.745Z,9.68
2022-10-01T19:27:52.794Z,8.97
2022-10-01T19:31:21.801Z,9.23
2022-10-01T19:34:41.179Z,7.53
2022-10-01T19:37:55.759Z,9.93
2022-10-01T19:41:22.747Z,7.60
2022-10-01T19:44:31.212Z,7.03
2022-10-01T19:47:52.756Z,8.55
2022-10-01T19:51:09.126Z,8.80
2022-10-01T19:54:22.056Z,7.45
2022-10-01T19:57:38.757Z,6.85
2022-10-01T20:00:42.430Z,7.97
2022-10-01T20:04:07.771Z,8.73
2022-10-01T20:07:34.819Z,8.00
2022-10-01T20:10:43.049Z,8.75
2022-10-01T20:14:12.772Z,7.62
2022-10-01T20:17:30.525Z,6.60
2022-10-01T20:20:47.815Z,7.25
2022-10-01T20:24:39.835Z,5.82
2022-10-01T20:28:07.995Z,6.37
2022-10-01T20:31:31.863Z,9.60
2022-10-01T20:35:01.848Z,6.00
2022-10-01T20:38:11.484Z,5.35
2022-10-01T20:41:28.815Z,6.28
2022-10-01T20:44:44.808Z,6.47
2022-10-01T20:47:53.335Z,5.50
2022-10-01T20:51:23.789Z,5.27
2022-10-01T20:54:38.796Z,4.43
2022-10-01T20:57:54.797Z,6.30
2022-10-01T21:01:15.942Z,5.07
2022-10-01T21:04:23.036Z,5.20
2022-10-01T21:07:54.878Z,5.37
2022-10-01T21:11:16.831Z,5.45
2022-10-01T21:14:28.683Z,5.97
2022-10-01T21:17:54.889Z,6.82
2022-10-01T21:21:15.643Z,4.70
2022-10-01T21:24:58.799Z,4.27
2022-10-01T21:28:33.956Z,6.45
2022-10-01T21:32:18.781Z,4.22
2022-10-01T21:35:39.475Z,4.87
2022-10-01T21:39:01.840Z,6.55
2022-10-01T21:42:15.924Z,6.30
2022-10-01T21:45:43.841Z,4.07
2022-10-01T21:49:18.483Z,4.47
2022-10-01T21:52:46.790Z,4.12
2022-10-01T21:56:30.829Z,6.03
2022-10-01T22:00:03.211Z,6.20
2022-10-01T22:03:42.810Z,5.60
2022-10-01T22:07:03.816Z,5.12
2022-10-01T22:10:26.983Z,5.53
2022-10-01T22:13:39.823Z,4.18
2022-10-01T22:17:01.881Z,5.10
2022-10-01T22:20:10.439Z,7.03
2022-10-01T22:23:23.848Z,5.43
2022-10-01T22:26:44.832Z,5.00
2022-10-01T22:30:00.820Z,5.12
2022-10-01T22:33:23.786Z,4.07
2022-10-01T22:36:41.424Z,4.15
2022-10-01T22:39:57.804Z,5.72
2022-10-01T22:43:16.875Z,4.28
2022-10-01T22:46:51.566Z,5.68
2022-10-01T22:50:16.809Z,3.60
2022-10-01T22:53:55.843Z,4.32
2022-10-01T22:57:21.590Z,4.32
2022-10-01T23:00:29.811Z,3.78
2022-10-01T23:04:02.829Z,4.20
2022-10-01T23:07:20.487Z,6.23
2022-10-01T23:10:55.821Z,4.30
2022-10-01T23:14:29.231Z,4.65
2022-10-01T23:17:48.820Z,4.40
2022-10-01T23:21:26.815Z,4.47
2022-10-01T23:25:00.912Z,3.23
2022-10-01T23:28:25.923Z,3.22
2022-10-01T23:31:49.881Z,3.35
2022-10-01T23:35:11.384Z,4.30
2022-10-01T23:38:39.808Z,3.85
2022-10-01T23:41:54.915Z,3.47
2022-10-01T23:45:12.893Z,4.60
2022-10-01T23:48:36.841Z,3.35
2022-10-01T23:51:55.200Z,2.85
2022-10-01T23:55:10.852Z,3.58
2022-10-01T23:58:22.835Z,4.40
